Time;durP1;ratioP1;P1;durP2;ratioP2;P2;SDS_P1;SDS_P2;PMS_P1;PMS_P2;Temp;Humidity;BMP_temperature;BMP_pressure;BME280_temperature;BME280_humidity;BME280_pressure;Samples;Min_cycle;Max_cycle;Signal;HPM_P1;HPM_P2
2023/12/31 00:00:54;;;;;;;7.83;2.80;;;7.90;94.50;;;;;;5083247;28;20406;-77
2023/12/31 00:03:20;;;;;;;7.75;2.92;;;7.90;94.50;;;;;;5098973;28;20896;-77
2023/12/31 00:05:45;;;;;;;7.00;2.80;;;7.90;94.40;;;;;;5088915;28;20452;-77
2023/12/31 00:08:11;;;;;;;7.73;3.23;;;7.90;94.30;;;;;;5084088;28;20470;-77
2023/12/31 00:10:40;;;;;;;8.70;3.10;;;8.00;94.30;;;;;;5088582;28;20869;-77
2023/12/31 00:13:06;;;;;;;7.87;2.70;;;8.00;94.20;;;;;;5079283;28;20413;-77
2023/12/31 00:15:32;;;;;;;8.03;3.03;;;8.00;94.30;;;;;;5071740;28;20406;-77
2023/12/31 00:17:57;;;;;;;10.30;3.40;;;8.00;94.20;;;;;;5090171;28;20398;-77
2023/12/31 00:20:23;;;;;;;6.47;2.65;;;8.00;94.10;;;;;;5091212;28;20439;-76
2023/12/31 00:22:49;;;;;;;7.05;2.95;;;8.00;94.10;;;;;;5090441;28;20401;-77
2023/12/31 00:25:15;;;;;;;7.93;3.10;;;8.00;94.20;;;;;;5090243;28;20962;-77
2023/12/31 00:27:41;;;;;;;6.72;2.67;;;8.00;94.20;;;;;;5088831;28;20410;-76
2023/12/31 00:30:07;;;;;;;7.03;2.63;;;8.00;94.00;;;;;;5089752;28;20418;-76
2023/12/31 00:32:33;;;;;;;6.68;2.72;;;8.00;93.80;;;;;;5102741;28;20396;-77
2023/12/31 00:34:59;;;;;;;4.82;2.60;;;7.90;94.00;;;;;;5096603;28;20442;-77
2023/12/31 00:37:25;;;;;;;5.80;2.35;;;7.90;94.20;;;;;;5106572;28;20412;-77
2023/12/31 00:39:50;;;;;;;6.93;3.07;;;8.00;94.40;;;;;;5098137;28;20483;-77
2023/12/31 00:42:16;;;;;;;6.75;3.00;;;7.90;94.60;;;;;;5106325;28;21247;-77
2023/12/31 00:44:42;;;;;;;6.90;3.00;;;8.00;94.50;;;;;;5101483;28;20425;-77
2023/12/31 00:47:07;;;;;;;8.30;3.13;;;8.00;94.50;;;;;;5088103;28;20413;-77
2023/12/31 00:49:33;;;;;;;6.20;2.80;;;8.00;94.50;;;;;;5088493;28;20406;-77
2023/12/31 00:51:59;;;;;;;6.03;2.87;;;8.00;94.50;;;;;;5101711;28;21267;-77
2023/12/31 00:54:24;;;;;;;5.60;2.77;;;8.00;94.90;;;;;;5108238;28;20491;-76
2023/12/31 00:56:50;;;;;;;4.38;2.75;;;8.00;94.70;;;;;;5105616;28;20396;-77
2023/12/31 00:59:16;;;;;;;5.20;2.70;;;8.00;94.80;;;;;;5106914;28;20405;-77
2023/12/31 01:01:41;;;;;;;6.78;2.85;;;8.00;94.80;;;;;;5093315;28;20422;-77
2023/12/31 01:04:07;;;;;;;6.35;2.78;;;8.00;94.80;;;;;;5095887;28;20467;-77
2023/12/31 01:06:33;;;;;;;6.65;3.00;;;8.00;94.80;;;;;;5094041;28;21188;-77
2023/12/31 01:08:59;;;;;;;6.60;3.07;;;8.00;94.70;;;;;;5108802;28;20398;-77
2023/12/31 01:11:27;;;;;;;5.65;3.40;;;8.10;94.70;;;;;;5106078;28;20396;-77
2023/12/31 01:13:53;;;;;;;8.05;3.03;;;8.00;94.60;;;;;;5088717;28;20943;-76
2023/12/31 01:16:18;;;;;;;7.00;3.55;;;8.00;94.60;;;;;;5088989;28;20973;-77
2023/12/31 01:18:44;;;;;;;6.80;3.20;;;8.00;94.40;;;;;;5089264;28;20492;-77
2023/12/31 01:21:09;;;;;;;6.43;3.35;;;8.00;94.30;;;;;;5099924;28;20404;-77
2023/12/31 01:23:35;;;;;;;6.90;3.50;;;8.00;94.30;;;;;;5107863;28;20388;-77
2023/12/31 01:26:01;;;;;;;7.13;3.70;;;8.00;94.10;;;;;;5105458;28;20404;-77
2023/12/31 01:28:27;;;;;;;6.78;3.58;;;7.90;94.00;;;;;;5107716;28;20403;-77
2023/12/31 01:30:52;;;;;;;5.55;3.40;;;7.90;94.00;;;;;;5105329;28;20393;-77
2023/12/31 01:33:18;;;;;;;7.27;3.33;;;7.80;94.20;;;;;;5108304;28;20396;-77
2023/12/31 01:35:44;;;;;;;6.10;3.28;;;7.90;94.30;;;;;;5105917;28;20903;-77
2023/12/31 01:38:09;;;;;;;6.33;3.13;;;7.80;94.20;;;;;;5107550;28;20392;-77
2023/12/31 01:40:35;;;;;;;6.53;3.20;;;7.80;94.20;;;;;;5106014;28;20828;-77
2023/12/31 01:43:00;;;;;;;5.68;3.20;;;7.80;94.50;;;;;;5107053;28;20400;-77
2023/12/31 01:45:26;;;;;;;5.03;3.27;;;7.80;94.40;;;;;;5106061;28;20492;-77
2023/12/31 01:47:52;;;;;;;5.97;3.20;;;7.80;94.40;;;;;;5107359;28;20882;-77
2023/12/31 01:50:20;;;;;;;7.35;3.00;;;7.80;94.60;;;;;;5105421;28;20412;-77
2023/12/31 01:52:47;;;;;;;5.80;2.95;;;7.70;94.30;;;;;;5095119;28;20450;-77
2023/12/31 01:55:13;;;;;;;6.05;3.00;;;7.70;94.40;;;;;;5103264;28;20405;-77
2023/12/31 01:57:40;;;;;;;5.88;2.90;;;7.70;94.40;;;;;;5099830;28;20400;-77
2023/12/31 02:00:06;;;;;;;4.75;2.85;;;7.70;94.70;;;;;;5099684;28;20487;-77
2023/12/31 02:02:32;;;;;;;5.25;2.97;;;7.70;94.60;;;;;;5087786;28;20408;-77
2023/12/31 02:04:58;;;;;;;7.28;3.10;;;7.70;94.40;;;;;;5091962;28;20451;-77
2023/12/31 02:07:24;;;;;;;5.97;2.80;;;7.70;94.50;;;;;;5088267;28;20398;-77
2023/12/31 02:09:51;;;;;;;6.28;3.00;;;7.60;94.40;;;;;;5097690;28;20815;-77
2023/12/31 02:12:17;;;;;;;6.75;3.13;;;7.60;94.40;;;;;;5093094;28;20406;-77
2023/12/31 02:14:43;;;;;;;5.87;3.20;;;7.60;94.40;;;;;;5092899;28;20390;-77
2023/12/31 02:17:09;;;;;;;7.60;3.10;;;7.60;94.60;;;;;;5092969;28;20409;-77
2023/12/31 02:19:35;;;;;;;5.10;3.10;;;7.50;94.80;;;;;;5096533;28;20918;-77
2023/12/31 02:22:01;;;;;;;5.70;3.00;;;7.60;95.00;;;;;;5091413;28;20424;-77
2023/12/31 02:24:47;;;;;;;5.72;2.90;;;7.60;94.60;;;;;;5097892;28;20771;-77
2023/12/31 02:27:13;;;;;;;5.80;3.00;;;7.50;94.80;;;;;;5093325;28;20916;-77
2023/12/31 02:29:39;;;;;;;7.00;2.80;;;7.50;94.90;;;;;;5092353;28;20406;-77
2023/12/31 02:32:05;;;;;;;5.97;2.70;;;7.60;95.10;;;;;;5092959;28;20405;-77
2023/12/31 02:34:31;;;;;;;4.78;2.50;;;7.50;95.20;;;;;;5095636;28;20445;-77
2023/12/31 02:36:57;;;;;;;5.60;2.97;;;7.60;95.00;;;;;;5092404;28;20402;-77
2023/12/31 02:39:24;;;;;;;5.38;2.70;;;7.60;95.10;;;;;;5089270;28;20413;-77
2023/12/31 02:41:50;;;;;;;4.10;2.67;;;7.60;95.10;;;;;;5093245;28;20482;-77
2023/12/31 02:44:17;;;;;;;5.72;2.60;;;7.60;95.10;;;;;;5091742;28;20516;-77
2023/12/31 02:46:42;;;;;;;4.03;2.23;;;7.60;95.00;;;;;;5087667;28;21273;-77
2023/12/31 02:49:11;;;;;;;3.73;2.07;;;7.60;95.00;;;;;;5088674;28;20410;-77
2023/12/31 02:51:37;;;;;;;5.05;2.50;;;7.60;95.00;;;;;;5091832;28;20707;-77
2023/12/31 02:54:02;;;;;;;4.18;2.15;;;7.60;95.00;;;;;;5089545;28;20409;-77
2023/12/31 02:56:28;;;;;;;3.93;2.23;;;7.60;95.10;;;;;;5089984;28;20748;-77
2023/12/31 02:58:54;;;;;;;4.37;2.10;;;7.60;95.30;;;;;;5089632;28;20408;-77
2023/12/31 03:01:19;;;;;;;5.00;2.13;;;7.60;94.90;;;;;;5091272;28;20459;-77
2023/12/31 03:03:45;;;;;;;5.20;2.00;;;7.60;95.10;;;;;;5089094;28;20417;-77
2023/12/31 03:06:15;;;;;;;4.05;2.10;;;7.60;95.00;;;;;;5100885;28;20396;-78
2023/12/31 03:08:40;;;;;;;4.97;2.10;;;7.50;95.00;;;;;;5105209;28;20494;-77
2023/12/31 03:11:09;;;;;;;4.07;2.00;;;7.50;94.90;;;;;;5091194;28;20488;-78
2023/12/31 03:13:35;;;;;;;4.05;1.67;;;7.50;95.10;;;;;;5091392;28;20408;-77
2023/12/31 03:16:06;;;;;;;3.80;1.83;;;7.50;95.00;;;;;;5091418;28;20398;-77
2023/12/31 03:18:32;;;;;;;4.22;1.40;;;7.50;95.10;;;;;;5098690;28;20504;-77
2023/12/31 03:20:58;;;;;;;4.32;1.63;;;7.50;95.00;;;;;;5089394;28;20406;-77
2023/12/31 03:23:24;;;;;;;3.58;1.30;;;7.50;95.00;;;;;;5094392;28;20504;-77
2023/12/31 03:25:50;;;;;;;3.28;1.40;;;7.50;95.00;;;;;;5097614;28;20394;-77
2023/12/31 03:28:15;;;;;;;4.40;1.10;;;7.60;95.00;;;;;;5091155;28;20733;-77
2023/12/31 03:30:41;;;;;;;2.50;1.10;;;7.60;94.90;;;;;;5098287;28;20398;-77
2023/12/31 03:33:07;;;;;;;3.58;1.27;;;7.60;94.80;;;;;;5102472;28;20801;-78
2023/12/31 03:35:32;;;;;;;2.63;1.15;;;7.60;94.70;;;;;;5096309;28;20741;-77
2023/12/31 03:37:58;;;;;;;2.90;1.27;;;7.60;94.50;;;;;;5093514;28;20439;-77
2023/12/31 03:40:24;;;;;;;2.42;1.05;;;7.60;94.50;;;;;;5097431;28;20484;-77
2023/12/31 03:42:50;;;;;;;2.60;1.40;;;7.60;94.40;;;;;;5101453;28;20400;-77
2023/12/31 03:45:16;;;;;;;3.08;0.95;;;7.70;94.40;;;;;;5102558;28;20435;-77
2023/12/31 03:47:41;;;;;;;2.93;1.10;;;7.60;94.30;;;;;;5102444;28;20403;-77
2023/12/31 03:50:07;;;;;;;2.40;0.93;;;7.60;94.10;;;;;;5098594;28;20482;-78
2023/12/31 03:52:33;;;;;;;3.20;1.38;;;7.60;94.10;;;;;;5090248;28;20400;-77
2023/12/31 03:54:58;;;;;;;2.65;0.98;;;7.60;94.00;;;;;;5094339;28;20778;-78
2023/12/31 03:57:24;;;;;;;3.37;1.27;;;7.60;94.30;;;;;;5098835;28;20914;-78
2023/12/31 03:59:50;;;;;;;2.70;1.00;;;7.60;94.30;;;;;;5093892;28;20400;-78
2023/12/31 04:02:19;;;;;;;2.90;1.10;;;7.60;94.50;;;;;;5097671;28;20414;-78
2023/12/31 04:04:45;;;;;;;3.63;0.98;;;7.60;94.30;;;;;;5098854;28;20840;-78
2023/12/31 04:07:11;;;;;;;3.57;1.23;;;7.60;94.20;;;;;;5097010;28;20405;-78
2023/12/31 04:09:36;;;;;;;2.40;1.10;;;7.60;94.40;;;;;;5098407;28;20407;-78
2023/12/31 04:12:04;;;;;;;2.85;1.10;;;7.60;94.70;;;;;;5096420;28;20401;-78
2023/12/31 04:14:31;;;;;;;3.67;1.10;;;7.60;94.90;;;;;;5098152;28;20400;-78
2023/12/31 04:16:56;;;;;;;2.45;1.00;;;7.60;94.70;;;;;;5096578;28;20492;-78
2023/12/31 04:19:22;;;;;;;2.80;1.20;;;7.60;94.80;;;;;;5098701;28;20503;-78
2023/12/31 04:21:48;;;;;;;4.18;1.23;;;7.50;94.90;;;;;;5097163;28;20768;-78
2023/12/31 04:24:13;;;;;;;3.10;1.20;;;7.50;94.90;;;;;;5097337;28;20926;-78
2023/12/31 04:26:44;;;;;;;4.60;1.48;;;7.50;95.10;;;;;;5096566;28;20390;-78
2023/12/31 04:29:13;;;;;;;3.85;1.30;;;7.50;95.10;;;;;;5094026;28;20890;-78
2023/12/31 04:31:46;;;;;;;2.88;1.25;;;7.50;95.20;;;;;;5091292;28;20918;-78
2023/12/31 04:34:12;;;;;;;3.67;1.70;;;7.50;95.20;;;;;;5101480;28;20403;-78
2023/12/31 04:36:42;;;;;;;4.35;1.40;;;7.60;95.50;;;;;;5094669;28;20405;-78
2023/12/31 04:39:08;;;;;;;4.03;1.40;;;7.60;95.50;;;;;;5100802;28;20808;-78
2023/12/31 04:41:33;;;;;;;3.17;1.37;;;7.60;95.40;;;;;;5093568;28;20413;-78
2023/12/31 04:43:59;;;;;;;3.55;1.40;;;7.60;95.60;;;;;;5099708;28;20517;-78
2023/12/31 04:46:25;;;;;;;2.92;1.60;;;7.60;95.30;;;;;;5094489;28;20745;-78
2023/12/31 04:48:51;;;;;;;3.28;1.42;;;7.70;95.30;;;;;;5097872;28;20402;-78
2023/12/31 04:51:30;;;;;;;4.60;1.50;;;7.70;95.00;;;;;;5094335;28;20410;-78
2023/12/31 04:53:56;;;;;;;3.05;1.48;;;7.70;95.00;;;;;;5093100;28;20487;-78
2023/12/31 04:56:24;;;;;;;3.20;1.40;;;7.70;94.90;;;;;;5095177;28;20394;-77
2023/12/31 04:58:51;;;;;;;3.67;1.60;;;7.70;94.90;;;;;;5089548;28;20401;-78
2023/12/31 05:01:17;;;;;;;3.15;1.52;;;7.80;94.80;;;;;;5094071;28;20407;-77
2023/12/31 05:03:45;;;;;;;2.70;1.30;;;7.80;94.50;;;;;;5096666;28;20411;-78
2023/12/31 05:06:12;;;;;;;3.08;1.40;;;7.70;94.30;;;;;;5095060;28;20413;-78
2023/12/31 05:08:44;;;;;;;3.50;1.70;;;7.70;94.30;;;;;;5079106;28;20410;-78
2023/12/31 05:11:11;;;;;;;3.38;1.52;;;7.70;94.30;;;;;;5094070;28;20467;-78
2023/12/31 05:13:40;;;;;;;3.65;1.50;;;7.70;94.30;;;;;;5093630;28;20406;-78
2023/12/31 05:16:07;;;;;;;3.10;1.55;;;7.70;94.00;;;;;;5092777;28;20410;-78
2023/12/31 05:18:33;;;;;;;2.25;1.45;;;7.80;93.90;;;;;;5093802;28;20398;-77
2023/12/31 05:21:01;;;;;;;2.97;1.38;;;7.80;93.80;;;;;;5091404;28;20398;-77
2023/12/31 05:23:27;;;;;;;4.43;1.65;;;7.80;93.70;;;;;;5095228;28;20394;-77
2023/12/31 05:25:53;;;;;;;3.88;1.70;;;7.80;93.60;;;;;;5092303;28;20410;-78
2023/12/31 05:28:18;;;;;;;4.22;1.80;;;7.80;93.40;;;;;;5088042;28;20463;-78
2023/12/31 05:30:44;;;;;;;4.03;1.83;;;7.90;93.20;;;;;;5098503;28;21399;-78
2023/12/31 05:33:11;;;;;;;3.70;2.10;;;7.90;93.00;;;;;;5096518;28;20967;-78
2023/12/31 05:35:36;;;;;;;2.97;1.50;;;7.90;92.80;;;;;;5098071;28;20401;-78
2023/12/31 05:38:02;;;;;;;3.10;1.50;;;7.90;92.70;;;;;;5096235;28;20397;-78
2023/12/31 05:40:27;;;;;;;4.57;1.55;;;7.90;92.60;;;;;;5098068;28;20479;-78
2023/12/31 05:42:53;;;;;;;3.60;1.77;;;7.90;92.70;;;;;;5094656;28;20409;-78
2023/12/31 05:45:19;;;;;;;2.93;1.70;;;7.90;92.40;;;;;;5092412;28;20462;-78
2023/12/31 05:47:47;;;;;;;4.03;2.00;;;7.90;92.30;;;;;;5095461;28;20481;-78
2023/12/31 05:50:14;;;;;;;3.45;1.63;;;7.90;92.20;;;;;;5098599;28;20404;-78
2023/12/31 05:52:39;;;;;;;4.22;1.60;;;7.90;92.10;;;;;;5095493;28;20813;-77
2023/12/31 05:55:05;;;;;;;3.10;1.67;;;7.90;91.90;;;;;;5095909;28;20404;-78
2023/12/31 05:57:31;;;;;;;3.13;1.58;;;8.00;91.70;;;;;;5094535;28;20393;-78
2023/12/31 05:59:57;;;;;;;2.83;1.47;;;8.00;91.50;;;;;;5096823;28;20766;-78
2023/12/31 06:02:22;;;;;;;4.53;1.60;;;8.00;91.30;;;;;;5089849;28;20456;-77
2023/12/31 06:04:48;;;;;;;3.60;1.43;;;8.00;91.10;;;;;;5090574;28;20493;-78
2023/12/31 06:07:13;;;;;;;3.83;1.50;;;8.00;90.70;;;;;;5093437;28;20394;-78
2023/12/31 06:09:39;;;;;;;2.80;1.50;;;8.00;90.60;;;;;;5096298;28;20902;-78
2023/12/31 06:12:05;;;;;;;2.63;1.70;;;8.00;90.40;;;;;;5092793;28;20486;-78
2023/12/31 06:14:30;;;;;;;2.78;1.40;;;8.00;90.40;;;;;;5095207;28;20404;-78
2023/12/31 06:16:56;;;;;;;3.57;1.93;;;8.00;90.40;;;;;;5075080;28;20480;-77
2023/12/31 06:19:21;;;;;;;2.78;1.80;;;8.00;90.40;;;;;;5093264;28;20502;-78
2023/12/31 06:21:47;;;;;;;3.83;1.97;;;8.00;90.30;;;;;;5092065;28;20930;-78
2023/12/31 06:24:13;;;;;;;3.42;2.17;;;8.00;90.30;;;;;;5093929;28;20429;-78
2023/12/31 06:26:38;;;;;;;3.40;1.80;;;8.00;90.20;;;;;;5092948;28;20802;-78
2023/12/31 06:29:04;;;;;;;4.17;1.57;;;8.00;90.10;;;;;;5090539;28;20759;-78
2023/12/31 06:31:29;;;;;;;3.38;1.90;;;8.00;89.60;;;;;;5096497;28;20535;-78
2023/12/31 06:33:55;;;;;;;2.73;1.97;;;8.00;89.30;;;;;;5096279;28;20405;-78
2023/12/31 06:36:20;;;;;;;3.10;1.73;;;8.10;89.00;;;;;;5094583;28;20495;-78
2023/12/31 06:38:46;;;;;;;4.80;1.90;;;8.10;88.60;;;;;;5094628;28;20406;-78
2023/12/31 06:41:12;;;;;;;3.88;1.65;;;8.10;88.30;;;;;;5093769;28;20806;-77
2023/12/31 06:43:38;;;;;;;2.70;1.63;;;8.00;88.90;;;;;;5094923;28;20394;-78
2023/12/31 06:46:04;;;;;;;3.17;1.58;;;8.00;88.30;;;;;;5095086;28;20420;-78
2023/12/31 06:48:31;;;;;;;3.50;1.67;;;8.10;88.50;;;;;;5094402;28;20409;-78
2023/12/31 06:50:56;;;;;;;2.80;1.67;;;8.00;88.10;;;;;;5095534;28;20398;-78
2023/12/31 06:53:23;;;;;;;3.60;1.75;;;8.10;87.00;;;;;;5077467;28;20535;-78
2023/12/31 06:55:49;;;;;;;3.97;1.90;;;8.10;87.30;;;;;;5095586;28;20831;-78
2023/12/31 06:58:15;;;;;;;3.13;1.73;;;8.10;87.80;;;;;;5093953;28;21507;-78
2023/12/31 07:00:40;;;;;;;3.80;1.70;;;8.10;87.60;;;;;;5094961;28;20418;-78
2023/12/31 07:03:06;;;;;;;2.88;1.70;;;8.10;87.40;;;;;;5094727;28;21341;-78
2023/12/31 07:05:32;;;;;;;2.95;1.60;;;8.10;86.80;;;;;;5095230;28;20418;-78
2023/12/31 07:07:57;;;;;;;2.57;1.63;;;8.10;86.80;;;;;;5094778;28;20406;-77
2023/12/31 07:10:23;;;;;;;4.53;1.90;;;8.10;87.00;;;;;;5076360;28;20888;-78
2023/12/31 07:12:49;;;;;;;3.58;1.60;;;8.10;87.00;;;;;;5093271;28;20488;-78
2023/12/31 07:15:16;;;;;;;3.00;1.60;;;8.00;86.90;;;;;;5094688;28;20398;-78
2023/12/31 07:17:42;;;;;;;4.60;1.90;;;8.10;86.70;;;;;;5092307;28;20492;-78
2023/12/31 07:20:08;;;;;;;3.05;1.67;;;8.10;86.90;;;;;;5092438;28;20488;-78
2023/12/31 07:22:34;;;;;;;3.03;1.63;;;8.10;86.70;;;;;;5092305;28;20899;-76
2023/12/31 07:25:02;;;;;;;3.70;2.00;;;8.10;86.60;;;;;;5093966;28;20471;-76
2023/12/31 07:27:29;;;;;;;3.72;1.90;;;8.10;86.30;;;;;;5091540;28;20382;-76
2023/12/31 07:29:54;;;;;;;3.50;1.60;;;8.10;86.10;;;;;;5092941;28;20409;-77
2023/12/31 07:32:20;;;;;;;3.22;1.83;;;8.10;86.30;;;;;;5095811;28;20404;-77
2023/12/31 07:34:46;;;;;;;4.78;1.60;;;8.10;86.70;;;;;;5094662;28;20485;-77
2023/12/31 07:37:11;;;;;;;3.63;1.97;;;8.10;86.60;;;;;;5092071;28;20410;-76
2023/12/31 07:39:40;;;;;;;3.63;1.98;;;8.00;86.50;;;;;;5075272;28;20892;-77
2023/12/31 07:42:06;;;;;;;3.03;1.70;;;8.00;86.60;;;;;;5096738;28;20389;-77
2023/12/31 07:44:32;;;;;;;4.18;1.60;;;8.00;86.70;;;;;;5094751;28;20425;-77
2023/12/31 07:46:58;;;;;;;3.72;1.70;;;8.00;86.50;;;;;;5093907;28;20472;-76
2023/12/31 07:49:24;;;;;;;2.30;1.45;;;8.00;86.80;;;;;;5094021;28;20485;-77
2023/12/31 07:51:50;;;;;;;3.90;1.60;;;8.00;86.10;;;;;;5098673;28;20396;-76
2023/12/31 07:54:16;;;;;;;2.22;1.55;;;8.10;86.40;;;;;;5096082;28;20421;-77
2023/12/31 07:56:42;;;;;;;3.08;1.60;;;8.10;85.70;;;;;;5094803;28;20398;-77
2023/12/31 07:59:08;;;;;;;2.70;1.67;;;8.10;84.80;;;;;;5095391;28;20768;-76
2023/12/31 08:01:34;;;;;;;3.50;1.40;;;8.10;85.10;;;;;;5098464;28;20398;-77
2023/12/31 08:03:59;;;;;;;2.77;1.50;;;8.10;84.30;;;;;;5096629;28;20795;-76
2023/12/31 08:06:26;;;;;;;2.40;1.40;;;8.10;84.40;;;;;;5097822;28;20398;-77
2023/12/31 08:08:52;;;;;;;3.13;1.63;;;8.10;84.00;;;;;;5096007;28;20409;-77
2023/12/31 08:11:20;;;;;;;2.63;1.30;;;8.20;83.60;;;;;;5093539;28;20400;-77
2023/12/31 08:13:46;;;;;;;2.65;1.40;;;8.10;82.90;;;;;;5096132;28;20409;-77
2023/12/31 08:16:11;;;;;;;3.23;1.50;;;8.20;84.60;;;;;;5093932;28;20410;-76
2023/12/31 08:18:38;;;;;;;3.90;1.50;;;8.10;84.00;;;;;;5077522;28;20540;-77
2023/12/31 08:21:04;;;;;;;2.78;1.35;;;8.20;83.30;;;;;;5094295;28;20950;-77
2023/12/31 08:23:30;;;;;;;2.97;1.10;;;8.20;83.20;;;;;;5093549;28;20398;-76
2023/12/31 08:25:56;;;;;;;3.83;1.70;;;8.30;82.50;;;;;;5097322;28;20512;-77
2023/12/31 08:28:22;;;;;;;1.88;1.10;;;8.30;81.10;;;;;;5090985;28;20771;-76
2023/12/31 08:30:48;;;;;;;2.88;1.48;;;8.30;80.50;;;;;;5099265;28;20408;-77
2023/12/31 08:33:14;;;;;;;3.17;1.50;;;8.30;81.00;;;;;;5092011;28;20394;-77
2023/12/31 08:35:40;;;;;;;3.03;1.30;;;8.30;81.00;;;;;;5099876;28;20415;-76
2023/12/31 08:38:06;;;;;;;2.80;1.30;;;8.30;81.00;;;;;;5096074;28;20405;-76
2023/12/31 08:40:31;;;;;;;3.17;1.50;;;8.40;80.70;;;;;;5098789;28;21939;-77
2023/12/31 08:42:57;;;;;;;2.60;1.30;;;8.40;80.80;;;;;;5096157;28;20465;-77
2023/12/31 08:45:23;;;;;;;2.80;1.40;;;8.40;81.20;;;;;;5095156;28;20418;-77
2023/12/31 08:47:49;;;;;;;3.27;1.30;;;8.40;80.30;;;;;;5095991;28;20430;-76
2023/12/31 08:50:15;;;;;;;2.60;1.20;;;8.40;80.60;;;;;;5094389;28;20398;-77
2023/12/31 08:52:44;;;;;;;3.37;1.40;;;8.40;80.60;;;;;;5095953;28;20398;-77
2023/12/31 08:55:10;;;;;;;2.73;1.37;;;8.40;81.10;;;;;;5100101;28;20400;-77
2023/12/31 08:57:37;;;;;;;3.10;1.20;;;8.40;81.60;;;;;;5097278;28;20398;-77
2023/12/31 09:00:03;;;;;;;2.58;1.38;;;8.40;81.60;;;;;;5099621;28;20413;-77
2023/12/31 09:02:29;;;;;;;3.13;1.60;;;8.40;82.10;;;;;;5094520;28;20977;-77
2023/12/31 09:04:55;;;;;;;2.80;1.43;;;8.40;81.80;;;;;;5089469;28;20418;-77
2023/12/31 09:07:20;;;;;;;2.57;1.40;;;8.40;81.30;;;;;;5093525;28;20593;-77
2023/12/31 09:09:46;;;;;;;2.90;1.45;;;8.40;81.10;;;;;;5099064;28;20405;-77
2023/12/31 09:12:11;;;;;;;3.17;1.20;;;8.50;81.30;;;;;;5095467;28;20428;-77
2023/12/31 09:14:37;;;;;;;1.98;1.20;;;8.50;81.10;;;;;;5098291;28;20394;-77
2023/12/31 09:17:03;;;;;;;2.50;1.20;;;8.50;81.30;;;;;;5094556;28;20497;-77
2023/12/31 09:19:28;;;;;;;3.40;1.60;;;8.60;80.70;;;;;;5095380;28;20408;-77
2023/12/31 09:21:54;;;;;;;2.22;1.20;;;8.60;80.50;;;;;;5093899;28;20791;-77
2023/12/31 09:24:19;;;;;;;2.20;1.30;;;8.60;79.20;;;;;;5086017;28;20420;-77
2023/12/31 09:26:45;;;;;;;3.50;1.30;;;8.70;79.20;;;;;;5093758;28;20455;-77
2023/12/31 09:29:10;;;;;;;3.27;1.47;;;8.70;78.50;;;;;;5093188;28;20392;-77
2023/12/31 09:31:37;;;;;;;2.42;1.40;;;8.70;77.60;;;;;;5097111;28;20764;-77
2023/12/31 09:34:03;;;;;;;2.30;1.30;;;8.80;77.30;;;;;;5095629;28;20918;-77
2023/12/31 09:36:28;;;;;;;2.47;1.20;;;8.80;76.90;;;;;;5085341;28;20405;-77
2023/12/31 09:38:54;;;;;;;2.13;1.23;;;8.80;76.80;;;;;;5087914;28;20792;-76
2023/12/31 09:41:24;;;;;;;3.57;1.30;;;8.80;76.90;;;;;;5085358;28;20406;-77
2023/12/31 09:43:54;;;;;;;3.15;1.25;;;8.80;74.50;;;;;;5091315;28;20457;-77
2023/12/31 09:46:21;;;;;;;2.50;1.13;;;8.90;75.60;;;;;;5088087;28;20763;-78
2023/12/31 09:48:51;;;;;;;2.08;1.42;;;8.90;73.70;;;;;;5082634;28;20967;-77
2023/12/31 09:51:18;;;;;;;3.25;1.30;;;8.90;74.90;;;;;;5066709;28;20402;-78
2023/12/31 09:53:45;;;;;;;2.13;1.40;;;8.90;74.40;;;;;;5082696;28;20396;-77
2023/12/31 09:56:16;;;;;;;2.50;1.20;;;8.90;74.10;;;;;;5084476;28;20402;-79
2023/12/31 09:58:42;;;;;;;3.83;1.50;;;8.90;73.50;;;;;;5087901;28;20484;-78
2023/12/31 10:01:08;;;;;;;3.58;1.50;;;8.90;72.70;;;;;;5081080;28;21017;-79
2023/12/31 10:03:36;;;;;;;3.10;1.20;;;8.90;72.30;;;;;;5091489;28;20473;-78
2023/12/31 10:06:03;;;;;;;2.83;1.42;;;8.90;70.90;;;;;;5079937;28;20433;-79
2023/12/31 10:08:29;;;;;;;2.83;1.27;;;9.00;71.60;;;;;;5088042;28;20446;-78
2023/12/31 10:10:57;;;;;;;3.30;1.55;;;9.00;73.20;;;;;;5091699;28;20406;-78
2023/12/31 10:13:23;;;;;;;3.83;1.55;;;9.00;72.60;;;;;;5105151;28;20845;-79
2023/12/31 10:15:51;;;;;;;3.17;1.33;;;9.00;68.40;;;;;;5096319;28;20402;-78
2023/12/31 10:18:17;;;;;;;2.00;1.20;;;9.10;67.40;;;;;;5091319;28;20402;-78
2023/12/31 10:20:42;;;;;;;3.38;1.30;;;9.20;66.70;;;;;;5087123;28;20420;-78
2023/12/31 10:23:08;;;;;;;3.20;1.50;;;9.20;66.50;;;;;;5087732;28;20397;-79
2023/12/31 10:25:34;;;;;;;3.45;1.45;;;9.20;64.00;;;;;;5086704;28;20437;-78
2023/12/31 10:27:59;;;;;;;2.92;1.58;;;9.20;67.30;;;;;;5095539;28;20401;-78
2023/12/31 10:30:26;;;;;;;4.60;1.30;;;9.30;64.60;;;;;;5070052;28;20461;-78
2023/12/31 10:32:51;;;;;;;2.90;1.30;;;9.30;65.60;;;;;;5084312;28;20580;-78
2023/12/31 10:35:20;;;;;;;2.83;1.40;;;9.30;65.10;;;;;;5080006;28;20504;-78
2023/12/31 10:37:46;;;;;;;3.25;1.50;;;9.30;64.90;;;;;;5078441;28;20400;-78
2023/12/31 10:40:20;;;;;;;2.50;1.60;;;9.30;64.70;;;;;;5104126;28;20411;-78
2023/12/31 10:42:51;;;;;;;2.92;1.45;;;9.30;64.90;;;;;;5088198;28;20402;-78
2023/12/31 10:45:18;;;;;;;2.90;1.50;;;9.30;64.60;;;;;;5089971;28;20531;-78
2023/12/31 10:47:47;;;;;;;3.47;1.58;;;9.40;62.70;;;;;;5107953;28;20415;-78
2023/12/31 10:50:20;;;;;;;2.65;1.63;;;9.40;66.70;;;;;;5094000;28;20450;-78
2023/12/31 10:52:49;;;;;;;2.33;1.52;;;9.50;61.20;;;;;;5106240;28;20906;-79
2023/12/31 10:55:14;;;;;;;2.80;1.70;;;9.50;59.90;;;;;;5100301;28;20433;-78
2023/12/31 10:57:44;;;;;;;2.10;1.45;;;9.60;57.60;;;;;;5088028;28;20413;-78
2023/12/31 11:00:13;;;;;;;3.70;1.67;;;9.60;57.60;;;;;;5086891;28;20406;-78
2023/12/31 11:02:41;;;;;;;3.15;1.50;;;9.70;60.90;;;;;;5099898;28;20948;-78
2023/12/31 11:05:08;;;;;;;3.00;1.70;;;9.60;60.10;;;;;;5105722;28;20432;-77
2023/12/31 11:07:35;;;;;;;3.20;1.60;;;9.70;58.70;;;;;;5086983;28;21154;-77
2023/12/31 11:10:02;;;;;;;3.30;2.00;;;9.70;57.20;;;;;;5082303;28;20914;-78
2023/12/31 11:12:28;;;;;;;3.50;1.88;;;9.70;59.40;;;;;;5085429;28;20780;-78
2023/12/31 11:15:13;;;;;;;4.83;4.10;;;9.70;58.20;;;;;;5086024;28;20414;-77
2023/12/31 11:18:08;;;;;;;4.00;1.80;;;9.80;59.50;;;;;;5085613;28;20430;-78
2023/12/31 11:20:52;;;;;;;3.35;1.60;;;9.80;54.90;;;;;;5066258;28;20432;-78
2023/12/31 11:23:19;;;;;;;3.63;1.95;;;9.90;57.30;;;;;;5062160;28;20440;-78
2023/12/31 11:25:45;;;;;;;3.60;1.70;;;10.00;51.10;;;;;;5086835;28;20434;-78
2023/12/31 11:28:10;;;;;;;3.90;2.22;;;10.10;47.90;;;;;;5088271;28;20425;-78
2023/12/31 11:30:50;;;;;;;3.00;1.67;;;10.10;47.10;;;;;;5090064;28;20438;-78
2023/12/31 11:33:17;;;;;;;3.60;2.17;;;10.10;44.80;;;;;;5089097;28;20462;-78
2023/12/31 11:35:44;;;;;;;4.13;2.33;;;10.10;45.70;;;;;;5087624;28;20863;-78
2023/12/31 11:38:10;;;;;;;4.25;2.60;;;10.10;47.20;;;;;;5089590;28;20425;-78
2023/12/31 11:40:36;;;;;;;5.30;3.25;;;10.10;48.40;;;;;;5094958;28;20419;-78
2023/12/31 11:43:19;;;;;;;3.50;2.70;;;10.10;47.90;;;;;;5089777;28;20496;-78
2023/12/31 11:45:49;;;;;;;8.50;6.93;;;10.10;48.40;;;;;;5089229;28;20915;-78
2023/12/31 11:48:24;;;;;;;7.70;5.90;;;10.00;50.10;;;;;;5084861;28;20959;-78
2023/12/31 11:51:03;;;;;;;8.93;8.02;;;10.00;50.80;;;;;;5088587;28;20432;-78
2023/12/31 11:53:47;;;;;;;5.85;4.70;;;10.00;52.60;;;;;;5072883;28;21140;-78
2023/12/31 11:56:13;;;;;;;4.57;3.10;;;10.00;55.50;;;;;;5101032;28;20412;-78
2023/12/31 11:58:42;;;;;;;6.20;3.78;;;9.90;57.50;;;;;;5106037;28;20524;-78
2023/12/31 12:01:09;;;;;;;4.88;3.47;;;9.90;62.30;;;;;;5100383;28;20477;-78
2023/12/31 12:03:34;;;;;;;6.68;3.55;;;9.80;65.60;;;;;;5090764;28;20795;-78
2023/12/31 12:06:00;;;;;;;5.20;3.73;;;9.80;67.20;;;;;;5093032;28;20482;-78
2023/12/31 12:08:26;;;;;;;5.18;4.18;;;9.70;69.50;;;;;;5094598;28;20412;-78
2023/12/31 12:10:52;;;;;;;6.97;5.03;;;9.70;72.50;;;;;;5084810;28;20449;-78
2023/12/31 12:13:18;;;;;;;13.45;10.90;;;9.60;74.00;;;;;;5102013;28;20458;-78
2023/12/31 12:15:43;;;;;;;4.15;2.72;;;9.50;75.70;;;;;;5106592;28;20424;-78
2023/12/31 12:18:18;;;;;;;5.67;2.43;;;9.50;77.30;;;;;;5095777;28;20469;-79
2023/12/31 12:20:44;;;;;;;3.13;0.87;;;9.30;79.50;;;;;;5094644;28;20426;-78
2023/12/31 12:23:09;;;;;;;3.77;0.60;;;9.10;75.20;;;;;;5094240;28;21592;-79
2023/12/31 12:25:35;;;;;;;2.37;0.60;;;8.70;74.60;;;;;;5105422;28;21043;-78
2023/12/31 12:28:04;;;;;;;2.00;0.77;;;8.40;78.90;;;;;;5094404;28;20416;-78
2023/12/31 12:30:30;;;;;;;2.60;1.20;;;8.20;87.20;;;;;;5099580;28;20421;-78
2023/12/31 12:32:58;;;;;;;4.30;1.20;;;8.10;90.20;;;;;;5105812;28;20404;-78
2023/12/31 12:35:27;;;;;;;2.80;0.80;;;8.10;92.90;;;;;;5093816;28;20429;-77
2023/12/31 12:37:53;;;;;;;1.40;0.70;;;8.10;94.20;;;;;;5106846;28;20400;-77
2023/12/31 12:40:19;;;;;;;1.75;0.88;;;8.00;94.40;;;;;;5093334;28;20429;-77
2023/12/31 12:42:48;;;;;;;2.70;1.10;;;8.00;94.80;;;;;;5091009;28;20477;-77
2023/12/31 12:45:15;;;;;;;3.58;2.00;;;8.00;94.10;;;;;;5089570;28;20837;-77
2023/12/31 12:47:42;;;;;;;4.45;3.03;;;8.00;94.70;;;;;;5092660;28;20453;-78
2023/12/31 12:50:09;;;;;;;12.30;8.40;;;8.00;95.80;;;;;;5089574;28;20467;-77
2023/12/31 12:52:35;;;;;;;12.75;8.85;;;8.10;95.70;;;;;;5083505;28;20949;-77